Winthrop, Arkansas
Current Conditions -  °F | °C
As of 5:53 AM on Sunday 25 Jan 2015 (Local Time) from KDEQ Reporting Station
Scattered Clouds Scattered Clouds  
Wind Chill: 31°   Ceiling: Unl
Heat Index: 31°   Visibility: 10mi
Dew Point: 30°   Wind: 0mph
Humidity: 96%   Direction: NA
Pressure: 29.85"   Gusts: NA
Location:  33.83°N, 94.35°W
Report Text: KDEQ 251153Z AUTO 00000KT 10SM SCT110 M01/M01 A2985 RMK AO2 SLP108 I6000 T10061011 10000 21022 56017
Loading
Personal Weather Stations






























Interactive Weather Map New forecast layout! Learn more

10-Day Weather Forecast

Advertisements
Track Severe Weather on mobile